createdAt,value
2018-07-11T00:01:24.818Z,19.00
2018-07-11T00:03:56.329Z,18.90
2018-07-11T00:06:28.439Z,18.90
2018-07-11T00:09:00.785Z,18.90
2018-07-11T00:11:32.660Z,18.80
2018-07-11T00:14:04.197Z,18.80
2018-07-11T00:16:36.437Z,18.80
2018-07-11T00:19:08.428Z,18.80
2018-07-11T00:21:40.020Z,18.70
2018-07-11T00:24:11.552Z,18.70
2018-07-11T00:26:43.368Z,18.70
2018-07-11T00:29:15.282Z,18.60
2018-07-11T00:31:47.202Z,18.60
2018-07-11T00:34:19.396Z,18.60
2018-07-11T00:36:51.277Z,18.60
2018-07-11T00:39:23.245Z,18.50
2018-07-11T00:41:55.091Z,18.50
2018-07-11T00:44:26.730Z,18.50
2018-07-11T00:46:58.305Z,18.50
2018-07-11T00:49:29.891Z,18.40
2018-07-11T00:52:01.538Z,18.40
2018-07-11T00:54:33.503Z,18.40
2018-07-11T00:57:05.144Z,18.30
2018-07-11T00:59:39.046Z,18.30
2018-07-11T01:02:10.569Z,18.30
2018-07-11T01:04:42.077Z,18.30
2018-07-11T01:07:14.409Z,18.20
2018-07-11T01:09:49.745Z,18.20
2018-07-11T01:12:21.644Z,18.20
2018-07-11T01:17:29.851Z,18.10
2018-07-11T01:20:01.452Z,18.10
2018-07-11T01:22:33.785Z,18.10
2018-07-11T01:25:05.189Z,18.10
2018-07-11T01:27:37.176Z,18.00
2018-07-11T01:30:09.173Z,18.00
2018-07-11T01:32:40.732Z,18.00
2018-07-11T01:35:12.558Z,17.90
2018-07-11T01:37:44.690Z,17.90
2018-07-11T01:40:16.587Z,17.90
2018-07-11T01:42:48.405Z,17.80
2018-07-11T01:45:20.061Z,17.80
2018-07-11T01:47:51.858Z,17.80
2018-07-11T01:50:23.624Z,17.70
2018-07-11T01:52:59.852Z,17.70
2018-07-11T01:55:31.609Z,17.70
2018-07-11T01:58:03.354Z,17.60
2018-07-11T02:00:35.023Z,17.60
2018-07-11T02:03:06.890Z,17.60
2018-07-11T02:05:38.616Z,17.60
2018-07-11T02:08:10.536Z,17.60
2018-07-11T02:10:42.528Z,17.50
2018-07-11T02:13:14.793Z,17.50
2018-07-11T02:15:48.780Z,17.40
2018-07-11T02:18:27.013Z,17.40
2018-07-11T02:21:00.214Z,17.40
2018-07-11T02:23:36.652Z,17.30
2018-07-11T02:26:08.457Z,17.30
2018-07-11T02:28:40.439Z,17.30
2018-07-11T02:31:12.131Z,17.20
2018-07-11T02:33:44.053Z,17.20
2018-07-11T02:36:15.574Z,17.20
2018-07-11T02:38:47.506Z,17.10
2018-07-11T02:41:19.342Z,17.10
2018-07-11T02:43:51.610Z,17.10
2018-07-11T02:48:59.912Z,17.00
2018-07-11T02:51:31.804Z,17.00
2018-07-11T02:54:03.956Z,16.90
2018-07-11T02:56:35.816Z,16.90
2018-07-11T02:59:07.819Z,16.90
2018-07-11T03:01:39.694Z,16.80
2018-07-11T03:04:11.316Z,16.80
2018-07-11T03:06:42.946Z,16.80
2018-07-11T03:09:14.806Z,16.70
2018-07-11T03:11:46.268Z,16.80
2018-07-11T03:14:17.763Z,16.70
2018-07-11T03:16:49.301Z,16.70
2018-07-11T03:19:20.829Z,16.60
2018-07-11T03:21:52.514Z,16.60
2018-07-11T03:24:24.700Z,16.60
2018-07-11T03:26:57.027Z,16.60
2018-07-11T03:29:28.541Z,16.60
2018-07-11T03:32:00.181Z,16.60
2018-07-11T03:34:31.850Z,16.50
2018-07-11T03:37:03.761Z,16.50
2018-07-11T03:39:35.300Z,16.50
2018-07-11T03:42:07.089Z,16.50
2018-07-11T03:44:39.201Z,16.50
2018-07-11T03:47:10.912Z,16.50
2018-07-11T03:49:42.516Z,16.50
2018-07-11T03:52:14.605Z,16.40
2018-07-11T03:54:46.102Z,16.40
2018-07-11T03:57:18.025Z,16.40
2018-07-11T03:59:49.583Z,16.40
2018-07-11T04:02:21.020Z,16.50
2018-07-11T04:04:52.752Z,16.40
2018-07-11T04:07:24.447Z,16.40
2018-07-11T04:09:56.011Z,16.40
2018-07-11T04:12:27.469Z,16.40
2018-07-11T04:17:29.856Z,16.50
2018-07-11T04:20:01.700Z,16.50
2018-07-11T04:22:33.242Z,16.50
2018-07-11T04:25:04.731Z,16.50
2018-07-11T04:27:36.368Z,16.50
2018-07-11T04:30:08.233Z,16.50
2018-07-11T04:32:39.797Z,16.60
2018-07-11T04:35:11.268Z,16.60
2018-07-11T04:37:42.908Z,16.60
2018-07-11T04:42:48.987Z,16.60
2018-07-11T04:45:21.444Z,16.60
2018-07-11T04:47:53.262Z,16.70
2018-07-11T04:50:24.965Z,16.70
2018-07-11T04:52:56.573Z,16.70
2018-07-11T04:55:28.234Z,16.70
2018-07-11T04:58:00.801Z,16.80
2018-07-11T05:00:33.992Z,16.80
2018-07-11T05:03:06.163Z,16.80
2018-07-11T05:05:38.301Z,16.90
2018-07-11T05:08:09.926Z,16.90
2018-07-11T05:10:41.490Z,16.90
2018-07-11T05:13:12.984Z,16.90
2018-07-11T05:15:44.544Z,17.00
2018-07-11T05:18:17.131Z,16.90
2018-07-11T05:20:48.783Z,17.00
2018-07-11T05:23:20.375Z,17.00
2018-07-11T05:25:51.835Z,17.00
2018-07-11T05:28:23.572Z,17.00
2018-07-11T05:30:55.182Z,17.00
2018-07-11T05:33:26.789Z,17.10
2018-07-11T05:35:58.351Z,17.10
2018-07-11T05:38:29.996Z,17.10
2018-07-11T05:41:01.722Z,17.20
2018-07-11T05:43:33.262Z,17.20
2018-07-11T05:46:04.792Z,17.30
2018-07-11T05:48:36.328Z,17.30
2018-07-11T05:51:08.131Z,17.40
2018-07-11T05:53:39.951Z,17.40
2018-07-11T05:56:11.799Z,17.40
2018-07-11T05:58:43.377Z,17.50
2018-07-11T06:01:15.157Z,17.50
2018-07-11T06:06:17.612Z,17.60
2018-07-11T06:08:49.223Z,17.70
2018-07-11T06:11:23.277Z,17.80
2018-07-11T06:13:55.219Z,17.80
2018-07-11T06:16:26.961Z,17.90
2018-07-11T06:18:58.689Z,17.90
2018-07-11T06:21:30.333Z,18.00
2018-07-11T06:24:02.131Z,18.10
2018-07-11T06:26:34.116Z,18.10
2018-07-11T06:29:06.299Z,18.20
2018-07-11T06:31:38.012Z,18.30
2018-07-11T06:34:09.627Z,18.40
2018-07-11T06:36:41.132Z,18.40
2018-07-11T06:39:13.129Z,18.50
2018-07-11T06:41:44.796Z,18.60
2018-07-11T06:44:16.497Z,18.60
2018-07-11T06:49:21.349Z,18.80
2018-07-11T06:51:53.680Z,18.90
2018-07-11T06:54:26.857Z,19.00
2018-07-11T06:59:31.969Z,19.20
2018-07-11T07:02:04.466Z,19.20
2018-07-11T07:04:36.452Z,19.30
2018-07-11T07:07:08.224Z,19.40
2018-07-11T07:09:39.863Z,19.50
2018-07-11T07:12:12.098Z,19.60
2018-07-11T07:17:14.557Z,19.70
2018-07-11T07:19:46.178Z,19.80
2018-07-11T07:22:18.097Z,19.90
2018-07-11T07:24:49.730Z,20.00
2018-07-11T07:27:23.082Z,20.00
2018-07-11T07:29:54.857Z,20.10
2018-07-11T07:32:26.652Z,20.20
2018-07-11T07:34:58.432Z,20.20
2018-07-11T07:37:30.459Z,20.30
2018-07-11T07:40:01.778Z,20.40
2018-07-11T07:42:33.474Z,20.50
2018-07-11T07:45:12.331Z,20.50
2018-07-11T07:47:45.986Z,20.60
2018-07-11T07:50:18.237Z,20.70
2018-07-11T07:52:50.079Z,20.80
2018-07-11T07:55:22.217Z,20.90
2018-07-11T07:57:54.181Z,21.00
2018-07-11T08:00:26.464Z,21.10
2018-07-11T08:02:59.192Z,21.10
2018-07-11T08:05:31.116Z,21.20
2018-07-11T08:08:02.659Z,21.30
2018-07-11T08:10:34.205Z,21.40
2018-07-11T08:13:06.046Z,21.40
2018-07-11T08:15:37.573Z,21.50
2018-07-11T08:18:09.811Z,21.60
2018-07-11T08:20:42.150Z,21.70
2018-07-11T08:23:33.715Z,21.80
2018-07-11T08:26:22.414Z,21.80
2018-07-11T08:29:24.948Z,21.90
2018-07-11T08:37:03.769Z,22.20
2018-07-11T08:42:05.872Z,22.30
2018-07-11T08:46:01.393Z,22.30
2018-07-11T08:50:59.144Z,22.40
2018-07-11T08:54:48.840Z,22.40
2018-07-11T08:59:41.154Z,22.50
2018-07-11T09:05:29.083Z,22.60
2018-07-11T09:08:17.413Z,22.70
2018-07-11T09:11:05.598Z,22.90
2018-07-11T09:14:26.430Z,23.00
2018-07-11T09:19:17.980Z,23.20
2018-07-11T09:23:18.795Z,23.40
2018-07-11T09:25:51.407Z,23.70
2018-07-11T09:28:23.725Z,23.90
2018-07-11T09:31:02.815Z,24.00
2018-07-11T09:33:34.902Z,24.20
2018-07-11T09:36:06.531Z,24.30
2018-07-11T09:38:38.058Z,24.40
2018-07-11T09:41:09.899Z,24.50
2018-07-11T09:43:42.382Z,24.60
2018-07-11T09:46:14.299Z,24.80
2018-07-11T09:48:46.389Z,24.90
2018-07-11T09:51:18.285Z,25.10
2018-07-11T09:56:21.404Z,25.40
2018-07-11T09:58:53.395Z,25.60
2018-07-11T10:01:27.337Z,25.70
2018-07-11T10:04:00.019Z,25.90
2018-07-11T10:06:32.134Z,25.90
2018-07-11T10:09:03.857Z,25.90
2018-07-11T10:11:36.031Z,25.90
2018-07-11T10:14:08.476Z,25.90
2018-07-11T10:16:40.416Z,25.90
2018-07-11T10:19:12.368Z,26.00
2018-07-11T10:21:43.891Z,26.00
2018-07-11T10:24:16.380Z,26.00
2018-07-11T10:31:50.526Z,26.20
2018-07-11T10:36:53.524Z,26.10
2018-07-11T10:39:25.175Z,26.50
2018-07-11T10:41:56.999Z,26.60
2018-07-11T10:44:28.570Z,26.80
2018-07-11T10:47:05.780Z,26.90
2018-07-11T10:49:37.375Z,27.00
2018-07-11T10:52:09.949Z,27.10
2018-07-11T10:54:41.566Z,27.20
2018-07-11T10:57:13.241Z,27.20
2018-07-11T10:59:45.366Z,27.20
2018-07-11T11:02:21.895Z,27.10
2018-07-11T11:04:54.312Z,27.10
2018-07-11T11:07:26.233Z,27.00
2018-07-11T11:09:58.072Z,26.90
2018-07-11T11:12:29.947Z,26.90
2018-07-11T11:15:01.675Z,27.00
2018-07-11T11:17:34.111Z,27.10
2018-07-11T11:20:05.812Z,27.20
2018-07-11T11:22:37.347Z,27.20
2018-07-11T11:25:09.134Z,27.20
2018-07-11T11:27:40.996Z,27.30
2018-07-11T11:32:43.990Z,27.30
2018-07-11T11:35:16.162Z,27.40
2018-07-11T11:37:49.194Z,27.70
2018-07-11T11:40:21.511Z,28.10
2018-07-11T11:42:53.760Z,28.50
2018-07-11T11:45:26.008Z,29.00
2018-07-11T11:47:59.756Z,29.50
2018-07-11T11:50:32.900Z,30.10
2018-07-11T11:53:05.480Z,30.60
2018-07-11T11:55:37.679Z,31.00
2018-07-11T12:00:48.121Z,31.30
2018-07-11T12:03:20.463Z,31.30
2018-07-11T12:05:52.619Z,31.30
2018-07-11T12:08:25.146Z,31.20
2018-07-11T12:10:57.700Z,30.90
2018-07-11T12:13:30.129Z,30.70
2018-07-11T12:16:03.189Z,30.40
2018-07-11T12:18:35.781Z,30.00
2018-07-11T12:21:07.791Z,29.80
2018-07-11T12:23:40.031Z,29.50
2018-07-11T12:26:11.991Z,29.20
2018-07-11T12:28:43.575Z,29.00
2018-07-11T12:31:15.987Z,29.30
2018-07-11T12:36:20.184Z,28.40
2018-07-11T12:38:55.953Z,28.20
2018-07-11T12:41:27.684Z,28.10
2018-07-11T12:43:59.383Z,28.00
2018-07-11T12:46:31.705Z,27.80
2018-07-11T12:49:05.795Z,27.70
2018-07-11T12:51:37.537Z,27.60
2018-07-11T12:54:09.143Z,27.50
2018-07-11T12:56:41.315Z,27.40
2018-07-11T12:59:13.158Z,27.30
2018-07-11T13:01:45.752Z,27.20
2018-07-11T13:04:17.751Z,27.10
2018-07-11T13:06:49.551Z,27.00
2018-07-11T13:09:22.618Z,26.90
2018-07-11T13:11:54.769Z,26.80
2018-07-11T13:14:26.325Z,26.70
2018-07-11T13:16:58.107Z,26.60
2018-07-11T13:19:29.978Z,26.50
2018-07-11T13:22:04.328Z,26.40
2018-07-11T13:24:35.922Z,26.30
2018-07-11T13:27:08.521Z,26.20
2018-07-11T13:29:40.421Z,26.10
2018-07-11T13:32:12.121Z,26.00
2018-07-11T13:34:44.095Z,26.00
2018-07-11T13:37:16.045Z,25.90
2018-07-11T13:39:47.653Z,25.90
2018-07-11T13:42:19.620Z,25.90
2018-07-11T13:44:51.634Z,25.90
2018-07-11T13:47:27.691Z,25.80
2018-07-11T13:49:59.252Z,25.80
2018-07-11T13:52:31.050Z,25.70
2018-07-11T13:55:02.943Z,25.50
2018-07-11T13:57:34.792Z,25.40
2018-07-11T14:00:07.274Z,25.20
2018-07-11T14:02:38.980Z,25.00
2018-07-11T14:07:42.318Z,24.50
2018-07-11T14:10:14.437Z,24.30
2018-07-11T14:12:46.434Z,24.10
2018-07-11T14:15:18.403Z,23.90
2018-07-11T14:17:50.172Z,23.80
2018-07-11T14:20:21.858Z,23.70
2018-07-11T14:22:53.766Z,23.50
2018-07-11T14:27:56.717Z,23.40
2018-07-11T14:30:28.646Z,23.30
2018-07-11T14:33:07.863Z,23.20
2018-07-11T14:35:39.457Z,23.10
2018-07-11T14:38:11.467Z,23.10
2018-07-11T14:40:43.521Z,23.00
2018-07-11T14:43:15.365Z,23.00
2018-07-11T14:45:47.335Z,23.00
2018-07-11T14:48:19.306Z,22.90
2018-07-11T14:50:51.019Z,22.90
2018-07-11T14:53:23.046Z,22.90
2018-07-11T14:55:54.747Z,23.00
2018-07-11T14:58:26.749Z,23.00
2018-07-11T15:00:58.373Z,23.00
2018-07-11T15:03:29.934Z,23.00
2018-07-11T15:06:01.657Z,23.00
2018-07-11T15:08:33.928Z,23.00
2018-07-11T15:11:06.156Z,23.00
2018-07-11T15:13:38.027Z,23.00
2018-07-11T15:16:10.588Z,23.00
2018-07-11T15:18:42.698Z,22.90
2018-07-11T15:21:14.631Z,22.90
2018-07-11T15:23:46.232Z,22.90
2018-07-11T15:28:49.328Z,22.80
2018-07-11T15:31:21.027Z,22.80
2018-07-11T15:33:54.348Z,22.80
2018-07-11T15:36:26.407Z,22.80
2018-07-11T15:38:58.568Z,22.70
2018-07-11T15:41:30.420Z,22.70
2018-07-11T15:46:57.405Z,22.20
2018-07-11T15:49:29.012Z,22.60
2018-07-11T15:52:01.242Z,22.50
2018-07-11T15:54:34.402Z,22.40
2018-07-11T15:57:11.860Z,22.40
2018-07-11T15:59:53.040Z,22.30
2018-07-11T16:02:25.202Z,22.30
2018-07-11T16:04:57.590Z,22.30
2018-07-11T16:07:31.971Z,22.10
2018-07-11T16:10:06.820Z,22.20
2018-07-11T16:15:09.273Z,22.20
2018-07-11T16:17:40.948Z,22.20
2018-07-11T16:20:12.686Z,22.20
2018-07-11T16:22:44.710Z,22.20
2018-07-11T16:27:47.548Z,22.20
2018-07-11T16:30:19.701Z,22.10
2018-07-11T16:32:52.032Z,22.10
2018-07-11T16:35:24.063Z,22.10
2018-07-11T16:37:55.941Z,22.10
2018-07-11T16:40:29.100Z,22.00
2018-07-11T16:43:01.943Z,22.10
2018-07-11T16:45:33.621Z,22.00
2018-07-11T16:48:07.364Z,21.90
2018-07-11T16:50:39.928Z,21.90
2018-07-11T16:53:12.541Z,21.90
2018-07-11T16:55:44.712Z,21.80
2018-07-11T16:58:24.882Z,21.80
2018-07-11T17:00:57.069Z,21.80
2018-07-11T17:03:30.780Z,21.90
2018-07-11T17:06:08.086Z,21.80
2018-07-11T17:08:56.762Z,21.70
2018-07-11T17:14:04.879Z,21.70
2018-07-11T17:17:04.170Z,21.70
2018-07-11T17:22:16.562Z,21.70
2018-07-11T17:24:48.753Z,21.70
2018-07-11T17:27:22.997Z,21.70
2018-07-11T17:32:32.410Z,21.70
2018-07-11T17:35:04.419Z,21.80
2018-07-11T17:37:37.763Z,21.70
2018-07-11T17:40:11.621Z,21.70
2018-07-11T17:42:45.510Z,21.80
2018-07-11T17:45:20.317Z,21.70
2018-07-11T17:48:22.204Z,21.70
2018-07-11T17:51:02.771Z,21.70
2018-07-11T17:53:45.883Z,21.70
2018-07-11T17:56:22.001Z,21.70
2018-07-11T18:01:41.072Z,21.70
2018-07-11T18:04:27.167Z,21.70
2018-07-11T18:07:12.456Z,21.70
2018-07-11T18:09:56.171Z,21.60
2018-07-11T18:12:41.689Z,21.60
2018-07-11T18:15:55.761Z,21.60
2018-07-11T18:19:48.446Z,21.60
2018-07-11T18:22:39.450Z,21.60
2018-07-11T18:27:37.619Z,21.60
2018-07-11T18:31:16.920Z,21.50
2018-07-11T18:35:36.426Z,21.50
2018-07-11T18:38:35.824Z,21.50
2018-07-11T18:41:14.070Z,21.40
2018-07-11T18:43:58.454Z,21.40
2018-07-11T18:46:46.510Z,21.40
2018-07-11T18:49:26.958Z,21.50
2018-07-11T18:52:44.650Z,21.50
2018-07-11T18:56:32.424Z,21.50
2018-07-11T18:59:24.050Z,21.50
2018-07-11T19:04:16.825Z,21.50
2018-07-11T19:07:06.735Z,21.50
2018-07-11T19:09:49.843Z,21.40
2018-07-11T19:12:32.198Z,21.40
2018-07-11T19:18:04.192Z,21.50
2018-07-11T19:20:46.540Z,21.50
2018-07-11T19:23:38.101Z,21.50
2018-07-11T19:28:33.406Z,21.50
2018-07-11T19:31:23.067Z,21.50
2018-07-11T19:34:15.917Z,21.50
2018-07-11T19:37:05.589Z,21.40
2018-07-11T19:40:03.575Z,21.40
2018-07-11T19:45:29.055Z,21.50
2018-07-11T19:49:17.436Z,21.40
2018-07-11T19:52:09.002Z,21.40
2018-07-11T19:56:06.899Z,21.50
2018-07-11T19:58:39.271Z,21.50
2018-07-11T20:01:10.887Z,21.40
2018-07-11T20:03:42.591Z,21.40
2018-07-11T20:06:14.448Z,21.40
2018-07-11T20:08:47.107Z,21.40
2018-07-11T20:11:19.686Z,21.40
2018-07-11T20:16:24.439Z,21.40
2018-07-11T20:21:28.716Z,21.40
2018-07-11T20:24:00.960Z,21.40
2018-07-11T20:26:32.866Z,21.40
2018-07-11T20:29:04.730Z,21.40
2018-07-11T20:31:36.882Z,21.40
2018-07-11T20:34:08.820Z,21.40
2018-07-11T20:36:40.665Z,21.40
2018-07-11T20:39:12.404Z,21.40
2018-07-11T20:41:44.081Z,21.40
2018-07-11T20:44:15.774Z,21.30
2018-07-11T20:46:47.881Z,21.30
2018-07-11T20:49:25.544Z,21.30
2018-07-11T20:51:57.526Z,21.20
2018-07-11T20:54:29.319Z,21.20
2018-07-11T20:57:01.050Z,21.20
2018-07-11T20:59:49.658Z,21.10
2018-07-11T21:02:38.081Z,21.10
2018-07-11T21:06:29.837Z,21.10
2018-07-11T21:11:23.606Z,21.10
2018-07-11T21:14:17.157Z,21.00
2018-07-11T21:17:10.357Z,20.90
2018-07-11T21:19:42.352Z,20.90
2018-07-11T21:22:14.006Z,20.90
2018-07-11T21:24:45.533Z,20.80
2018-07-11T21:27:17.110Z,20.80
2018-07-11T21:29:48.969Z,20.80
2018-07-11T21:32:20.555Z,20.80
2018-07-11T21:34:52.339Z,20.80
2018-07-11T21:37:24.683Z,20.80
2018-07-11T21:39:56.207Z,20.80
2018-07-11T21:42:28.382Z,20.80
2018-07-11T21:45:00.435Z,20.90
2018-07-11T21:47:32.324Z,20.90
2018-07-11T21:50:04.671Z,20.90
2018-07-11T21:52:36.497Z,20.90
2018-07-11T21:55:08.605Z,20.90
2018-07-11T21:57:40.212Z,20.90
2018-07-11T22:00:17.464Z,20.90
2018-07-11T22:03:00.697Z,20.90
2018-07-11T22:05:33.135Z,20.90
2018-07-11T22:08:06.894Z,20.90
2018-07-11T22:10:40.312Z,20.90
2018-07-11T22:13:12.477Z,20.90
2018-07-11T22:15:44.267Z,20.90
2018-07-11T22:20:56.200Z,20.90
2018-07-11T22:23:25.734Z,20.90
2018-07-11T22:25:55.354Z,20.90
2018-07-11T22:28:24.817Z,20.90
2018-07-11T22:30:54.326Z,20.90
2018-07-11T22:33:23.953Z,20.90
2018-07-11T22:35:53.417Z,20.80
2018-07-11T22:38:23.000Z,20.90
2018-07-11T22:40:52.402Z,20.90
2018-07-11T22:43:21.795Z,20.90
2018-07-11T22:45:51.276Z,20.90
2018-07-11T22:48:20.619Z,20.80
2018-07-11T22:50:50.024Z,20.90
2018-07-11T22:53:19.715Z,20.90
2018-07-11T22:55:49.219Z,20.90
2018-07-11T22:58:18.578Z,20.90
2018-07-11T23:00:48.082Z,21.10
2018-07-11T23:03:17.547Z,20.90
2018-07-11T23:05:46.948Z,20.90
2018-07-11T23:08:16.542Z,20.80
2018-07-11T23:10:46.112Z,20.80
2018-07-11T23:13:15.512Z,20.80
2018-07-11T23:15:44.934Z,20.80
2018-07-11T23:18:14.337Z,20.80
2018-07-11T23:20:43.734Z,20.80
2018-07-11T23:23:13.241Z,20.80
2018-07-11T23:25:42.632Z,20.80
2018-07-11T23:28:12.054Z,20.80
2018-07-11T23:30:41.649Z,20.80
2018-07-11T23:33:11.226Z,20.80
2018-07-11T23:42:08.413Z,20.80
2018-07-11T23:44:37.802Z,20.80
2018-07-11T23:47:07.215Z,20.70
2018-07-11T23:49:36.605Z,20.80
2018-07-11T23:52:06.079Z,20.80
2018-07-11T23:54:35.534Z,20.80
2018-07-11T23:57:04.927Z,20.80
2018-07-11T23:59:34.364Z,20.80
